Time;durP1;ratioP1;P1;durP2;ratioP2;P2;SDS_P1;SDS_P2;PMS_P1;PMS_P2;Temp;Humidity;BMP_temperature;BMP_pressure;BME280_temperature;BME280_humidity;BME280_pressure;Samples;Min_cycle;Max_cycle;Signal;HPM_P1;HPM_P2
2021/10/20 00:00:27;;;;;;;10.25;8.32;;;16.40;99.90;;;;;;5030436;28;39553;-77
2021/10/20 00:02:55;;;;;;;10.32;8.02;;;16.40;99.90;;;;;;5012580;28;39062;-77
2021/10/20 00:05:22;;;;;;;9.80;7.82;;;16.40;99.90;;;;;;5030431;28;35755;-77
2021/10/20 00:07:48;;;;;;;12.20;8.15;;;16.50;99.90;;;;;;5010097;28;39281;-77
2021/10/20 00:10:16;;;;;;;12.80;8.57;;;16.50;99.90;;;;;;5028414;28;38968;-77
2021/10/20 00:12:43;;;;;;;9.43;7.57;;;16.60;99.90;;;;;;5011862;28;39672;-77
2021/10/20 00:15:11;;;;;;;12.98;8.30;;;16.60;99.90;;;;;;5025278;28;36075;-76
2021/10/20 00:17:38;;;;;;;15.27;8.93;;;16.60;99.90;;;;;;5012504;28;40360;-76
2021/10/20 00:20:10;;;;;;;11.02;8.10;;;16.60;99.90;;;;;;5025774;28;38179;-77
2021/10/20 00:22:38;;;;;;;11.85;8.23;;;16.60;99.90;;;;;;5027460;28;48230;-77
2021/10/20 00:25:05;;;;;;;12.10;8.20;;;16.70;99.90;;;;;;5026562;28;37080;-76
2021/10/20 00:27:31;;;;;;;12.05;7.97;;;16.70;99.90;;;;;;5033779;28;38820;-77
2021/10/20 00:29:57;;;;;;;9.75;8.43;;;16.70;99.90;;;;;;5018044;28;39117;-77
2021/10/20 00:32:23;;;;;;;14.60;8.10;;;16.70;99.90;;;;;;5032301;28;38276;-77
2021/10/20 00:34:50;;;;;;;9.13;8.18;;;16.70;99.90;;;;;;5033282;28;34939;-77
2021/10/20 00:37:16;;;;;;;13.70;8.70;;;16.80;99.90;;;;;;5034733;28;38926;-78
2021/10/20 00:39:42;;;;;;;13.38;8.25;;;16.70;99.90;;;;;;5007688;28;39582;-77
2021/10/20 00:42:09;;;;;;;11.50;8.75;;;16.70;99.90;;;;;;5035918;28;40201;-77
2021/10/20 00:44:49;;;;;;;12.35;8.98;;;16.60;99.90;;;;;;5037415;28;38203;-76
2021/10/20 00:47:16;;;;;;;14.77;8.52;;;16.60;99.90;;;;;;5016152;28;39595;-77
2021/10/20 00:49:43;;;;;;;12.20;8.20;;;16.60;99.90;;;;;;5042051;28;39857;-76
2021/10/20 00:52:10;;;;;;;10.07;7.70;;;16.60;99.90;;;;;;5033449;28;39569;-77
2021/10/20 00:54:37;;;;;;;15.18;9.02;;;16.60;99.90;;;;;;5032684;28;37193;-76
2021/10/20 00:57:05;;;;;;;10.70;8.30;;;16.50;99.90;;;;;;5007733;28;39391;-76
2021/10/20 00:59:33;;;;;;;11.65;8.48;;;16.60;99.90;;;;;;5017237;28;38554;-77
2021/10/20 01:01:59;;;;;;;12.23;9.15;;;16.60;99.90;;;;;;5037664;28;38357;-76
2021/10/20 01:04:26;;;;;;;10.40;8.40;;;16.60;99.90;;;;;;5013668;28;38194;-76
2021/10/20 01:06:52;;;;;;;11.77;8.90;;;16.50;99.90;;;;;;5004728;28;40480;-76
2021/10/20 01:09:19;;;;;;;14.27;9.20;;;16.60;99.90;;;;;;5021423;28;38962;-77
2021/10/20 01:11:46;;;;;;;11.75;9.15;;;16.60;99.90;;;;;;5020450;28;39582;-77
2021/10/20 01:14:13;;;;;;;11.32;8.95;;;16.60;99.90;;;;;;5033112;28;38202;-77
2021/10/20 01:16:40;;;;;;;13.73;9.15;;;16.70;99.90;;;;;;5040617;28;39239;-77
2021/10/20 01:19:07;;;;;;;17.52;9.82;;;16.60;99.90;;;;;;5013568;28;39603;-76
2021/10/20 01:21:34;;;;;;;16.27;9.18;;;16.50;99.90;;;;;;5012213;28;38656;-77
2021/10/20 01:24:00;;;;;;;14.50;9.32;;;16.50;99.90;;;;;;5019584;28;37184;-76
2021/10/20 01:26:27;;;;;;;11.68;9.20;;;16.50;99.90;;;;;;5015891;28;40074;-77
2021/10/20 01:28:53;;;;;;;14.00;9.85;;;16.60;99.90;;;;;;5021331;28;38739;-77
2021/10/20 01:31:20;;;;;;;12.07;9.77;;;16.50;99.90;;;;;;5016258;28;39482;-76
2021/10/20 01:33:46;;;;;;;17.17;10.05;;;16.50;99.90;;;;;;5013024;28;37920;-77
2021/10/20 01:36:12;;;;;;;14.95;9.98;;;16.40;99.90;;;;;;5010509;28;40204;-77
2021/10/20 01:38:39;;;;;;;15.20;10.38;;;16.40;99.90;;;;;;5023425;28;40607;-76
2021/10/20 01:41:05;;;;;;;13.52;10.18;;;16.40;99.90;;;;;;5009532;28;38754;-76
2021/10/20 01:43:51;;;;;;;13.55;9.95;;;16.40;99.90;;;;;;5029399;28;37542;-76
2021/10/20 01:46:20;;;;;;;14.50;10.07;;;16.50;99.90;;;;;;5032018;28;38670;-77
2021/10/20 01:48:47;;;;;;;12.38;9.95;;;16.50;99.90;;;;;;5039400;28;40628;-77
2021/10/20 01:51:14;;;;;;;12.63;9.77;;;16.50;99.90;;;;;;5014658;28;38800;-77
2021/10/20 01:53:42;;;;;;;11.98;9.63;;;16.40;99.90;;;;;;5025722;28;38283;-77
2021/10/20 01:56:11;;;;;;;13.45;9.25;;;16.40;99.90;;;;;;5013815;28;38938;-77
2021/10/20 01:58:39;;;;;;;14.20;9.52;;;16.40;99.90;;;;;;5040039;28;39772;-77
2021/10/20 02:01:07;;;;;;;13.45;9.70;;;16.40;99.90;;;;;;5009048;28;39473;-76
2021/10/20 02:03:35;;;;;;;14.05;9.07;;;16.30;99.90;;;;;;5017378;28;37098;-76
2021/10/20 02:06:03;;;;;;;16.45;9.85;;;16.30;99.90;;;;;;5013980;28;39016;-75
2021/10/20 02:08:29;;;;;;;16.65;9.68;;;16.40;99.90;;;;;;5014593;28;41426;-76
2021/10/20 02:10:56;;;;;;;18.05;10.38;;;16.40;99.90;;;;;;5010189;28;38608;-77
2021/10/20 02:13:22;;;;;;;13.88;10.60;;;16.40;99.90;;;;;;5004714;28;37853;-76
2021/10/20 02:15:48;;;;;;;13.10;10.38;;;16.40;99.90;;;;;;5005657;28;39939;-76
2021/10/20 02:18:14;;;;;;;14.32;9.85;;;16.40;99.90;;;;;;4998373;28;39904;-76
2021/10/20 02:20:40;;;;;;;15.63;10.30;;;16.40;99.90;;;;;;5031188;28;38256;-76
2021/10/20 02:23:06;;;;;;;13.70;9.90;;;16.40;99.90;;;;;;5009893;28;37190;-76
2021/10/20 02:25:32;;;;;;;13.50;10.10;;;16.40;99.90;;;;;;5035274;28;39860;-76
2021/10/20 02:27:58;;;;;;;15.18;10.32;;;16.50;99.90;;;;;;5039039;28;39096;-77
2021/10/20 02:30:25;;;;;;;12.15;9.68;;;16.40;99.90;;;;;;5018691;28;38899;-76
2021/10/20 02:32:52;;;;;;;18.33;10.25;;;16.40;99.90;;;;;;5009009;28;38246;-77
2021/10/20 02:35:19;;;;;;;12.98;9.65;;;16.50;99.90;;;;;;5009414;28;39227;-76
2021/10/20 02:37:45;;;;;;;14.55;9.30;;;16.50;99.90;;;;;;5015501;28;39783;-76
2021/10/20 02:40:12;;;;;;;14.15;10.38;;;16.50;99.90;;;;;;5031053;28;39028;-76
2021/10/20 02:42:39;;;;;;;11.95;9.35;;;16.60;99.90;;;;;;5024865;28;37319;-76
2021/10/20 02:45:08;;;;;;;14.20;9.82;;;16.60;99.90;;;;;;5026500;28;38779;-77
2021/10/20 02:47:34;;;;;;;15.23;10.32;;;16.50;99.90;;;;;;5028421;28;38675;-76
2021/10/20 02:50:00;;;;;;;15.15;10.52;;;16.50;99.90;;;;;;5014138;28;38223;-76
2021/10/20 02:52:26;;;;;;;17.75;10.52;;;16.50;99.90;;;;;;5014908;28;36231;-76
2021/10/20 02:54:52;;;;;;;15.52;10.23;;;16.50;99.90;;;;;;5032867;28;38863;-76
2021/10/20 02:57:19;;;;;;;12.55;9.63;;;16.50;99.90;;;;;;5034324;28;38481;-77
2021/10/20 02:59:45;;;;;;;17.15;11.20;;;16.50;99.90;;;;;;5006417;28;38896;-75
2021/10/20 03:02:11;;;;;;;16.15;10.13;;;16.50;99.90;;;;;;5011843;28;39093;-77
2021/10/20 03:04:37;;;;;;;19.25;11.43;;;16.60;99.90;;;;;;5031822;28;39676;-76
2021/10/20 03:07:03;;;;;;;18.85;12.48;;;16.60;99.90;;;;;;5025213;28;38792;-77
2021/10/20 03:09:29;;;;;;;17.83;12.45;;;16.50;99.90;;;;;;5014308;28;39013;-77
2021/10/20 03:11:56;;;;;;;15.85;11.48;;;16.50;99.90;;;;;;5034859;28;37447;-76
2021/10/20 03:14:22;;;;;;;20.10;11.48;;;16.60;99.90;;;;;;5007463;28;39631;-76
2021/10/20 03:16:48;;;;;;;14.18;11.40;;;16.60;99.90;;;;;;5018266;28;37517;-76
2021/10/20 03:19:14;;;;;;;18.85;12.95;;;16.60;99.90;;;;;;5037556;28;38551;-77
2021/10/20 03:21:40;;;;;;;17.98;11.68;;;16.60;99.90;;;;;;5035930;28;38172;-77
2021/10/20 03:24:07;;;;;;;16.13;12.60;;;16.60;99.90;;;;;;5038447;28;38722;-77
2021/10/20 03:26:33;;;;;;;16.65;12.25;;;16.60;99.90;;;;;;5034612;28;39695;-76
2021/10/20 03:28:59;;;;;;;17.55;11.63;;;16.60;99.90;;;;;;5019469;28;38888;-76
2021/10/20 03:31:26;;;;;;;18.15;12.88;;;16.70;99.90;;;;;;5015896;28;36190;-77
2021/10/20 03:33:52;;;;;;;20.63;12.48;;;16.60;99.90;;;;;;5039369;28;38556;-76
2021/10/20 03:36:18;;;;;;;16.85;11.95;;;16.60;99.90;;;;;;5032642;28;38726;-76
2021/10/20 03:38:44;;;;;;;19.85;13.10;;;16.60;99.90;;;;;;5032966;28;39866;-76
2021/10/20 03:41:11;;;;;;;16.25;12.20;;;16.60;99.90;;;;;;5023471;28;38865;-76
2021/10/20 03:43:38;;;;;;;16.17;11.82;;;16.60;99.90;;;;;;5016913;28;38657;-76
2021/10/20 03:46:06;;;;;;;14.85;11.80;;;16.60;99.90;;;;;;5016091;28;39352;-76
2021/10/20 03:48:33;;;;;;;14.43;11.27;;;16.60;99.90;;;;;;5032339;28;38036;-76
2021/10/20 03:50:59;;;;;;;16.50;11.05;;;16.60;99.90;;;;;;5034561;28;37618;-77
2021/10/20 03:53:25;;;;;;;15.60;11.20;;;16.60;99.90;;;;;;5036380;28;37289;-76
2021/10/20 03:55:51;;;;;;;15.93;11.65;;;16.60;99.90;;;;;;5007435;28;37645;-77
2021/10/20 03:58:18;;;;;;;17.85;11.48;;;16.60;99.90;;;;;;5015566;28;38090;-76
2021/10/20 04:00:45;;;;;;;18.23;11.15;;;16.50;99.90;;;;;;5013011;28;39052;-76
2021/10/20 04:03:11;;;;;;;16.48;11.00;;;16.60;99.90;;;;;;5012393;28;40833;-76
2021/10/20 04:05:37;;;;;;;15.70;11.38;;;16.60;99.90;;;;;;5016062;28;39017;-76
2021/10/20 04:08:03;;;;;;;15.80;10.73;;;16.70;99.90;;;;;;5030737;28;38924;-76
2021/10/20 04:10:29;;;;;;;12.82;10.85;;;16.70;99.90;;;;;;5007101;28;37801;-76
2021/10/20 04:12:55;;;;;;;13.77;10.50;;;16.70;99.90;;;;;;5014916;28;38967;-77
2021/10/20 04:15:24;;;;;;;14.27;10.98;;;16.70;99.90;;;;;;5016027;28;38682;-76
2021/10/20 04:17:51;;;;;;;16.75;10.48;;;16.70;99.90;;;;;;5035455;28;40450;-76
2021/10/20 04:20:18;;;;;;;16.77;10.07;;;16.80;99.90;;;;;;5016800;28;38182;-76
2021/10/20 04:22:46;;;;;;;19.58;11.63;;;16.80;99.90;;;;;;5018195;28;39947;-77
2021/10/20 04:25:12;;;;;;;14.68;10.20;;;16.80;99.90;;;;;;5010293;28;39569;-77
2021/10/20 04:27:40;;;;;;;15.55;10.00;;;16.80;99.90;;;;;;5013764;28;38160;-76
2021/10/20 04:30:07;;;;;;;12.80;10.07;;;16.80;99.90;;;;;;5013100;28;35763;-76
2021/10/20 04:32:33;;;;;;;21.42;10.82;;;16.90;99.90;;;;;;5014022;28;47222;-77
2021/10/20 04:35:00;;;;;;;13.43;9.20;;;16.90;99.90;;;;;;5012123;28;39010;-76
2021/10/20 04:37:29;;;;;;;20.13;9.95;;;16.90;99.90;;;;;;5011615;28;39079;-76
2021/10/20 04:39:57;;;;;;;13.32;10.82;;;16.90;99.90;;;;;;5017637;28;37304;-76
2021/10/20 04:42:28;;;;;;;12.27;9.25;;;17.00;99.90;;;;;;5016027;28;39473;-76
2021/10/20 04:44:55;;;;;;;14.40;9.57;;;17.10;99.90;;;;;;5015006;28;37266;-77
2021/10/20 04:47:21;;;;;;;16.17;10.07;;;17.10;99.90;;;;;;5009386;28;39025;-76
2021/10/20 04:49:48;;;;;;;11.55;9.25;;;17.10;99.90;;;;;;5014615;28;38653;-76
2021/10/20 04:52:15;;;;;;;12.43;9.02;;;17.10;99.90;;;;;;5014252;28;40935;-76
2021/10/20 04:54:42;;;;;;;13.93;9.85;;;17.00;99.90;;;;;;5011397;28;39641;-76
2021/10/20 04:57:08;;;;;;;12.45;9.63;;;17.00;99.90;;;;;;5014303;28;39021;-76
2021/10/20 04:59:34;;;;;;;13.32;8.57;;;17.00;99.90;;;;;;5019213;28;36859;-77
2021/10/20 05:02:02;;;;;;;13.98;9.60;;;17.00;99.90;;;;;;5012089;28;39006;-75
2021/10/20 05:04:29;;;;;;;14.55;9.15;;;17.00;99.90;;;;;;5010431;28;48217;-76
2021/10/20 05:06:56;;;;;;;12.07;8.57;;;17.00;99.90;;;;;;5011729;28;39213;-76
2021/10/20 05:09:23;;;;;;;12.95;9.15;;;17.00;99.90;;;;;;5014096;28;38020;-76
2021/10/20 05:11:49;;;;;;;14.32;9.57;;;17.00;99.90;;;;;;5012752;28;39571;-76
2021/10/20 05:14:15;;;;;;;11.98;9.00;;;17.10;99.90;;;;;;5014896;28;37706;-76
2021/10/20 05:16:41;;;;;;;12.25;9.38;;;17.10;99.90;;;;;;5010975;28;40433;-76
2021/10/20 05:19:08;;;;;;;12.85;9.45;;;17.10;99.90;;;;;;5019710;28;37258;-77
2021/10/20 05:21:34;;;;;;;13.75;9.32;;;17.10;99.90;;;;;;5014379;28;38555;-76
2021/10/20 05:24:00;;;;;;;12.07;10.75;;;17.10;99.90;;;;;;5015501;28;38731;-76
2021/10/20 05:26:26;;;;;;;13.60;9.50;;;17.20;99.90;;;;;;5013333;28;40460;-76
2021/10/20 05:28:52;;;;;;;16.15;10.30;;;17.30;99.90;;;;;;5020942;28;37533;-76
2021/10/20 05:31:18;;;;;;;13.98;9.50;;;17.20;99.90;;;;;;5013262;28;39118;-76
2021/10/20 05:33:45;;;;;;;14.38;10.43;;;17.20;99.90;;;;;;5011268;28;39408;-76
2021/10/20 05:36:11;;;;;;;13.98;9.98;;;17.20;99.90;;;;;;5013986;28;38275;-76
2021/10/20 05:38:37;;;;;;;14.50;9.32;;;17.10;99.90;;;;;;5018002;28;38403;-77
2021/10/20 05:41:04;;;;;;;13.20;9.60;;;17.10;99.90;;;;;;5012985;28;38680;-76
2021/10/20 05:43:30;;;;;;;13.13;10.00;;;17.00;99.90;;;;;;5016552;28;37890;-75
2021/10/20 05:45:56;;;;;;;13.55;9.35;;;16.90;99.90;;;;;;5016357;28;38619;-76
2021/10/20 05:48:23;;;;;;;15.82;10.05;;;16.80;99.90;;;;;;5016143;28;37949;-77
2021/10/20 05:50:50;;;;;;;13.30;9.00;;;16.70;99.90;;;;;;5016627;28;39090;-77
2021/10/20 05:53:17;;;;;;;12.13;9.77;;;16.60;99.90;;;;;;5023397;28;38781;-75
2021/10/20 05:55:44;;;;;;;13.93;9.63;;;16.60;99.90;;;;;;5016672;28;38439;-77
2021/10/20 05:58:11;;;;;;;13.32;9.27;;;16.60;99.90;;;;;;5000297;28;36041;-77
2021/10/20 06:00:38;;;;;;;14.63;9.23;;;16.50;99.90;;;;;;5020004;28;39243;-77
2021/10/20 06:03:05;;;;;;;13.77;8.75;;;16.60;99.90;;;;;;5015320;28;38489;-77
2021/10/20 06:05:31;;;;;;;9.73;7.93;;;16.50;99.90;;;;;;5011594;28;37442;-77
2021/10/20 06:07:57;;;;;;;12.75;8.82;;;16.60;99.90;;;;;;5013042;28;37925;-77
2021/10/20 06:10:24;;;;;;;12.30;8.20;;;16.50;99.90;;;;;;5012770;28;38665;-77
2021/10/20 06:12:51;;;;;;;12.65;8.23;;;16.50;99.90;;;;;;5010704;28;39041;-76
2021/10/20 06:15:22;;;;;;;14.10;8.15;;;16.60;99.90;;;;;;5014712;28;37787;-77
2021/10/20 06:17:49;;;;;;;11.95;8.25;;;16.60;99.90;;;;;;5013797;28;37203;-77
2021/10/20 06:20:16;;;;;;;10.18;8.13;;;16.60;99.90;;;;;;5033137;28;39355;-77
2021/10/20 06:22:43;;;;;;;11.85;8.48;;;16.50;99.90;;;;;;5014180;28;38779;-76
2021/10/20 06:25:11;;;;;;;12.70;9.20;;;16.50;99.90;;;;;;5017721;28;39130;-76
2021/10/20 06:27:38;;;;;;;18.27;9.95;;;16.50;99.90;;;;;;5014200;28;37647;-77
2021/10/20 06:30:04;;;;;;;13.60;9.40;;;16.40;99.90;;;;;;5017323;28;38623;-76
2021/10/20 06:32:31;;;;;;;14.43;10.23;;;16.30;99.90;;;;;;5015599;28;38186;-77
2021/10/20 06:34:57;;;;;;;17.55;9.60;;;16.10;99.90;;;;;;5014651;28;38644;-77
2021/10/20 06:37:23;;;;;;;15.07;10.73;;;16.00;99.90;;;;;;5011277;28;37526;-76
2021/10/20 06:39:50;;;;;;;18.10;11.90;;;15.90;99.90;;;;;;5009212;28;38662;-76
2021/10/20 06:42:16;;;;;;;16.40;11.38;;;15.90;99.90;;;;;;5012195;28;39565;-77
2021/10/20 06:44:42;;;;;;;15.50;11.32;;;15.90;99.90;;;;;;5012955;28;39291;-76
2021/10/20 06:47:10;;;;;;;17.27;12.18;;;15.80;99.90;;;;;;5006687;28;36180;-77
2021/10/20 06:49:36;;;;;;;19.60;12.68;;;15.80;99.90;;;;;;5012505;28;40150;-76
2021/10/20 06:52:02;;;;;;;20.02;13.05;;;15.70;99.90;;;;;;5009384;28;40380;-77
2021/10/20 06:54:28;;;;;;;16.65;12.55;;;15.70;99.90;;;;;;5011073;28;48728;-77
2021/10/20 06:56:55;;;;;;;16.15;12.63;;;15.70;99.90;;;;;;5011456;28;37923;-77
2021/10/20 06:59:21;;;;;;;19.50;11.98;;;15.70;99.90;;;;;;5012923;28;40724;-77
2021/10/20 07:01:47;;;;;;;16.85;13.18;;;15.60;99.90;;;;;;5013690;28;38509;-76
2021/10/20 07:04:13;;;;;;;20.73;12.88;;;15.60;99.90;;;;;;5018919;28;38337;-77
2021/10/20 07:06:40;;;;;;;15.75;13.10;;;15.60;99.90;;;;;;5015831;28;37170;-77
2021/10/20 07:09:07;;;;;;;17.13;13.55;;;15.70;99.90;;;;;;5011265;28;40137;-76
2021/10/20 07:11:33;;;;;;;19.83;14.00;;;15.70;99.90;;;;;;5011188;28;39639;-76
2021/10/20 07:14:00;;;;;;;15.90;13.18;;;15.70;99.90;;;;;;5016822;28;38681;-77
2021/10/20 07:16:27;;;;;;;18.52;13.00;;;15.70;99.90;;;;;;5014183;28;38123;-78
2021/10/20 07:18:53;;;;;;;20.55;12.95;;;15.70;99.90;;;;;;5016126;28;38911;-77
2021/10/20 07:21:19;;;;;;;18.77;12.50;;;15.70;99.90;;;;;;5017207;28;40028;-77
2021/10/20 07:23:46;;;;;;;15.82;11.82;;;15.70;99.90;;;;;;5014233;28;37545;-77
2021/10/20 07:26:15;;;;;;;16.60;12.25;;;15.70;99.90;;;;;;5010187;28;37846;-76
2021/10/20 07:28:42;;;;;;;16.17;11.93;;;15.70;99.90;;;;;;5014937;28;40018;-75
2021/10/20 07:31:08;;;;;;;15.90;12.00;;;15.70;99.90;;;;;;5010145;28;39005;-75
2021/10/20 07:33:34;;;;;;;16.67;11.35;;;15.80;99.90;;;;;;5011478;28;38190;-74
2021/10/20 07:36:00;;;;;;;15.57;11.82;;;15.80;99.90;;;;;;5014469;28;35912;-75
2021/10/20 07:38:26;;;;;;;13.18;11.02;;;15.80;99.90;;;;;;5034628;28;47559;-75
2021/10/20 07:40:52;;;;;;;13.95;11.02;;;15.80;99.90;;;;;;5031217;28;39763;-76
2021/10/20 07:43:19;;;;;;;13.07;10.60;;;15.80;99.90;;;;;;5033463;28;38491;-74
2021/10/20 07:45:45;;;;;;;14.13;10.60;;;15.90;99.90;;;;;;5016920;28;38485;-76
2021/10/20 07:48:11;;;;;;;12.25;10.13;;;16.00;99.90;;;;;;5036937;28;38624;-75
2021/10/20 07:50:39;;;;;;;11.23;10.00;;;16.00;99.90;;;;;;5029030;28;39540;-74
2021/10/20 07:53:05;;;;;;;13.38;9.52;;;16.00;99.90;;;;;;5006990;28;38841;-75
2021/10/20 07:55:32;;;;;;;14.02;10.55;;;16.00;99.90;;;;;;5012050;28;38921;-74
2021/10/20 07:57:58;;;;;;;14.05;10.00;;;16.10;99.90;;;;;;5013646;28;39635;-75
2021/10/20 08:00:25;;;;;;;14.07;10.32;;;16.10;99.90;;;;;;5017136;28;39488;-73
2021/10/20 08:02:52;;;;;;;11.88;9.82;;;16.20;99.90;;;;;;5017242;28;38915;-75
2021/10/20 08:05:18;;;;;;;13.18;10.02;;;16.30;99.90;;;;;;5031888;28;37439;-74
2021/10/20 08:07:45;;;;;;;14.02;10.63;;;16.30;99.90;;;;;;5034879;28;39951;-76
2021/10/20 08:10:13;;;;;;;12.13;8.73;;;16.30;99.90;;;;;;5016678;28;39294;-75
2021/10/20 08:12:39;;;;;;;11.40;9.68;;;16.30;99.90;;;;;;5012208;28;41195;-75
2021/10/20 08:15:08;;;;;;;11.30;9.25;;;16.40;99.90;;;;;;5018642;28;36246;-75
2021/10/20 08:17:34;;;;;;;12.50;10.32;;;16.50;99.90;;;;;;5034426;28;38611;-73
2021/10/20 08:20:00;;;;;;;11.75;10.25;;;16.60;99.90;;;;;;5010679;28;37813;-73
2021/10/20 08:22:26;;;;;;;14.63;8.95;;;16.60;99.90;;;;;;5034032;28;38244;-73
2021/10/20 08:24:53;;;;;;;10.85;9.38;;;16.70;99.90;;;;;;5027159;28;37945;-76
2021/10/20 08:27:20;;;;;;;11.48;9.43;;;16.70;99.90;;;;;;5014653;28;38388;-73
2021/10/20 08:29:46;;;;;;;14.75;10.00;;;16.70;99.90;;;;;;5032068;28;39039;-74
2021/10/20 08:32:12;;;;;;;16.42;10.43;;;16.70;99.90;;;;;;5030619;28;38466;-73
2021/10/20 08:34:39;;;;;;;15.63;11.07;;;16.80;99.90;;;;;;5027523;28;37248;-77
2021/10/20 08:37:05;;;;;;;12.00;10.02;;;16.90;99.90;;;;;;5026405;28;39047;-74
2021/10/20 08:39:31;;;;;;;16.02;10.27;;;16.90;99.90;;;;;;5019539;28;37748;-73
2021/10/20 08:42:00;;;;;;;15.23;10.10;;;17.00;99.90;;;;;;5038402;28;38801;-74
2021/10/20 08:44:30;;;;;;;12.52;9.73;;;17.00;99.90;;;;;;5016244;28;38019;-74
2021/10/20 08:46:59;;;;;;;11.98;9.88;;;17.10;99.90;;;;;;5030974;28;38189;-74
2021/10/20 08:49:26;;;;;;;14.95;10.20;;;17.10;99.90;;;;;;5012960;28;39561;-72
2021/10/20 08:51:52;;;;;;;13.20;10.20;;;17.10;99.90;;;;;;4995334;28;37301;-73
2021/10/20 08:54:18;;;;;;;16.80;10.93;;;17.10;99.90;;;;;;5029383;28;38213;-72
2021/10/20 08:56:45;;;;;;;12.90;10.35;;;17.10;99.90;;;;;;5014530;28;38420;-73
2021/10/20 08:59:12;;;;;;;12.45;8.93;;;17.20;99.90;;;;;;5005883;28;39434;-72
2021/10/20 09:01:39;;;;;;;13.38;9.82;;;17.20;99.90;;;;;;5038163;28;39411;-73
2021/10/20 09:04:06;;;;;;;14.10;9.80;;;17.20;99.90;;;;;;5021112;28;36069;-74
2021/10/20 09:06:32;;;;;;;17.60;10.52;;;17.20;99.90;;;;;;5018681;28;37839;-75
2021/10/20 09:09:04;;;;;;;11.40;9.60;;;17.20;99.90;;;;;;5025106;28;38982;-77
2021/10/20 09:11:32;;;;;;;12.68;9.50;;;17.20;99.90;;;;;;5017352;28;47256;-72
2021/10/20 09:14:03;;;;;;;14.93;9.85;;;17.30;99.90;;;;;;5033051;28;37250;-73
2021/10/20 09:16:30;;;;;;;13.93;10.05;;;17.30;99.90;;;;;;5018448;28;49336;-75
2021/10/20 09:18:58;;;;;;;11.68;9.20;;;17.30;99.90;;;;;;5024508;28;39999;-72
2021/10/20 09:21:25;;;;;;;10.13;8.15;;;17.30;99.90;;;;;;5005553;28;38824;-73
2021/10/20 09:23:52;;;;;;;9.77;8.77;;;17.30;99.90;;;;;;5036428;28;38024;-73
2021/10/20 09:26:19;;;;;;;16.30;8.73;;;17.30;99.90;;;;;;5012983;28;39287;-73
2021/10/20 09:28:46;;;;;;;11.80;9.30;;;17.20;99.90;;;;;;5038165;28;40320;-73
2021/10/20 09:31:12;;;;;;;11.10;8.90;;;17.20;99.90;;;;;;5011193;28;40011;-73
2021/10/20 09:33:39;;;;;;;13.75;9.63;;;17.20;99.90;;;;;;5010542;28;38518;-72
2021/10/20 09:36:08;;;;;;;11.45;8.30;;;17.20;99.90;;;;;;5016520;28;37635;-72
2021/10/20 09:38:46;;;;;;;11.70;8.50;;;17.20;99.90;;;;;;5020422;28;39744;-72
2021/10/20 09:41:12;;;;;;;11.20;8.85;;;17.20;99.90;;;;;;5018002;28;39348;-73
2021/10/20 09:43:44;;;;;;;11.63;7.47;;;17.30;99.90;;;;;;5015107;28;37146;-72
2021/10/20 09:46:11;;;;;;;10.05;8.10;;;17.40;99.90;;;;;;5010524;28;40286;-75
2021/10/20 09:48:41;;;;;;;12.93;7.90;;;17.40;99.90;;;;;;5013129;28;39475;-72
2021/10/20 09:51:08;;;;;;;12.10;7.80;;;17.50;99.90;;;;;;5014129;28;39367;-71
2021/10/20 09:53:38;;;;;;;10.35;7.78;;;17.60;99.90;;;;;;5019274;28;37874;-72
2021/10/20 09:56:20;;;;;;;9.82;7.60;;;17.70;99.90;;;;;;5021954;28;39554;-72
2021/10/20 09:58:49;;;;;;;10.45;7.63;;;17.70;99.90;;;;;;5014156;28;40441;-72
2021/10/20 10:01:20;;;;;;;10.82;6.78;;;17.80;99.90;;;;;;5016078;28;38755;-72
2021/10/20 10:03:48;;;;;;;14.73;6.75;;;17.80;99.90;;;;;;5019251;28;36451;-72
2021/10/20 10:06:14;;;;;;;10.77;6.88;;;17.90;99.90;;;;;;5016021;28;37907;-72
2021/10/20 10:08:41;;;;;;;11.30;6.78;;;17.80;99.90;;;;;;5038715;28;40010;-71
2021/10/20 10:11:07;;;;;;;8.82;6.70;;;17.90;99.90;;;;;;5034124;28;38064;-72
2021/10/20 10:13:40;;;;;;;8.38;6.13;;;17.80;99.90;;;;;;5029925;28;38593;-72
2021/10/20 10:16:07;;;;;;;8.23;6.45;;;17.80;99.90;;;;;;5013954;28;39269;-71
2021/10/20 10:18:39;;;;;;;12.48;7.45;;;17.90;99.90;;;;;;5014016;28;37578;-72
2021/10/20 10:21:30;;;;;;;10.95;7.00;;;18.00;99.90;;;;;;5032401;28;38590;-72
2021/10/20 10:23:58;;;;;;;8.50;6.60;;;18.00;99.90;;;;;;5007197;28;36187;-72
2021/10/20 10:26:25;;;;;;;8.70;6.35;;;18.00;99.90;;;;;;5012619;28;40751;-72
2021/10/20 10:29:18;;;;;;;8.25;6.47;;;18.00;99.90;;;;;;5009177;28;37902;-72
2021/10/20 10:31:44;;;;;;;10.27;6.38;;;18.00;99.90;;;;;;5018704;28;48745;-73
2021/10/20 10:34:34;;;;;;;9.75;6.85;;;18.00;99.90;;;;;;5039740;28;37037;-74
2021/10/20 10:37:00;;;;;;;7.35;5.85;;;18.10;99.90;;;;;;5035730;28;38930;-75
2021/10/20 10:39:28;;;;;;;9.90;6.47;;;18.10;99.90;;;;;;5017110;28;40810;-73
2021/10/20 10:42:04;;;;;;;7.13;6.13;;;18.20;99.90;;;;;;5031770;28;38650;-74
2021/10/20 10:44:44;;;;;;;7.57;6.00;;;18.20;99.90;;;;;;5030470;28;48906;-74
2021/10/20 10:47:28;;;;;;;8.07;6.00;;;18.30;99.90;;;;;;5012601;28;37644;-74
2021/10/20 10:49:56;;;;;;;6.28;5.13;;;18.30;99.90;;;;;;5036403;28;38757;-74
2021/10/20 10:52:34;;;;;;;9.60;5.78;;;18.30;99.90;;;;;;5028790;28;38487;-74
2021/10/20 10:55:21;;;;;;;7.97;6.07;;;18.30;99.90;;;;;;5022268;28;38016;-74
2021/10/20 10:58:17;;;;;;;11.15;5.43;;;18.20;99.90;;;;;;5003818;28;47419;-73
2021/10/20 11:00:46;;;;;;;9.60;5.82;;;18.10;99.90;;;;;;5005159;28;47464;-73
2021/10/20 11:03:18;;;;;;;6.65;5.88;;;18.10;99.90;;;;;;5031167;28;39662;-73
2021/10/20 11:05:48;;;;;;;;;;;18.10;99.90;;;;;;5031993;28;37451;-73
2021/10/20 11:08:15;;;;;;;9.10;6.32;;;18.00;99.90;;;;;;5012878;28;40555;-73
2021/10/20 11:10:42;;;;;;;10.18;6.05;;;17.90;99.90;;;;;;5030042;28;37598;-73
2021/10/20 11:13:11;;;;;;;8.05;6.40;;;17.90;99.90;;;;;;5031946;28;39293;-74
2021/10/20 11:15:38;;;;;;;13.90;6.28;;;17.90;99.90;;;;;;5009126;28;38590;-72
2021/10/20 11:18:05;;;;;;;9.85;6.32;;;17.90;99.90;;;;;;5032997;28;40237;-73
2021/10/20 11:20:34;;;;;;;10.25;7.43;;;17.90;99.90;;;;;;5010256;28;40219;-72
2021/10/20 11:23:04;;;;;;;11.52;6.30;;;17.90;99.90;;;;;;5034788;28;38990;-73
2021/10/20 11:25:30;;;;;;;10.30;6.38;;;17.90;99.90;;;;;;5030296;28;48830;-73
2021/10/20 11:27:58;;;;;;;9.98;6.88;;;17.90;99.90;;;;;;5032356;28;40478;-73
2021/10/20 11:30:28;;;;;;;11.23;6.93;;;17.90;99.90;;;;;;5011064;28;40219;-73
2021/10/20 11:32:55;;;;;;;11.23;6.65;;;17.90;99.90;;;;;;5013394;28;38657;-73
2021/10/20 11:35:23;;;;;;;10.20;6.65;;;17.90;99.90;;;;;;5009825;28;37894;-73
2021/10/20 11:38:06;;;;;;;10.80;6.95;;;17.90;99.90;;;;;;5006108;28;39733;-72
2021/10/20 11:40:39;;;;;;;9.15;6.30;;;18.00;99.90;;;;;;5005512;28;45804;-72
2021/10/20 11:43:25;;;;;;;8.52;6.45;;;18.00;99.90;;;;;;5012198;28;39044;-73
2021/10/20 11:45:51;;;;;;;8.70;6.80;;;18.00;99.90;;;;;;5015109;28;38440;-73
2021/10/20 11:48:21;;;;;;;11.32;6.40;;;18.10;99.90;;;;;;5015158;28;39994;-72
2021/10/20 11:50:49;;;;;;;10.13;6.10;;;18.10;99.90;;;;;;5009597;28;40424;-73
2021/10/20 11:53:15;;;;;;;10.10;6.20;;;18.10;99.90;;;;;;5011913;28;39463;-73
2021/10/20 11:55:43;;;;;;;10.18;5.75;;;18.20;99.90;;;;;;5004918;28;37576;-74
2021/10/20 11:58:27;;;;;;;9.57;6.63;;;18.20;99.90;;;;;;5012042;28;39226;-72
2021/10/20 12:00:59;;;;;;;10.88;6.75;;;18.10;99.90;;;;;;5004222;28;38712;-72
2021/10/20 12:03:39;;;;;;;12.40;6.63;;;18.10;99.90;;;;;;5007343;28;40016;-72
2021/10/20 12:06:13;;;;;;;6.88;5.22;;;18.10;99.90;;;;;;5032260;28;37660;-73
2021/10/20 12:08:45;;;;;;;14.10;5.90;;;18.10;99.90;;;;;;5015417;28;37518;-73
2021/10/20 12:11:19;;;;;;;11.85;4.88;;;18.30;99.90;;;;;;5027361;28;38971;-73
2021/10/20 12:13:46;;;;;;;13.15;5.72;;;18.30;99.90;;;;;;5035996;28;39480;-73
2021/10/20 12:16:19;;;;;;;6.82;3.80;;;18.40;99.90;;;;;;5018984;28;37787;-72
2021/10/20 12:18:46;;;;;;;;;;;18.50;99.90;;;;;;5023347;28;38818;-73
2021/10/20 12:21:15;;;;;;;11.13;4.03;;;18.50;99.90;;;;;;5030900;28;39444;-72
2021/10/20 12:23:46;;;;;;;9.80;3.58;;;18.60;99.90;;;;;;5040394;28;38682;-73
2021/10/20 12:26:13;;;;;;;11.77;3.70;;;18.60;99.90;;;;;;5021781;28;37711;-73
2021/10/20 12:28:40;;;;;;;11.40;3.13;;;18.60;99.90;;;;;;5029802;28;39408;-72
2021/10/20 12:31:15;;;;;;;15.10;3.25;;;18.60;99.90;;;;;;5031293;28;38803;-72
2021/10/20 12:33:44;;;;;;;15.55;3.95;;;18.60;99.90;;;;;;5024888;28;39719;-72
2021/10/20 12:36:13;;;;;;;8.65;2.80;;;18.50;99.90;;;;;;5016048;28;38178;-73
2021/10/20 12:38:42;;;;;;;15.57;3.67;;;18.50;99.90;;;;;;5039612;28;39228;-72